Terminal Aerodrome Forecast
Issued by NWS

Home | Current Version | Previous Version | Text Only | Print | Product List | Glossary On
Versions: 1 2 3 4 5 6 7 8 9 10 11 12 13
000
FTUS45 KLKN 042327
TAFWMC
TAF
KWMC 042327Z 0500/0524 VRB05KT P6SM OVC130
     FM050300 22010KT P6SM OVC050
     FM050700 27006KT P6SM -RA OVC040
     FM050800 26008KT P6SM -RASN OVC025
     FM051100 31006KT P6SM SCT025 OVC050
     FM051900 24005KT P6SM FEW050 SCT200=

USA.gov is the U.S. government's official web portal to all federal, state and local government web resources and services.